Weather History for Stanley, ND

Change the Weather History Date:

Sunday, May 26, 2013

  Actual Average (KMOT) Record (KMOT)
Temperature  
Mean Temperature 59 °F 58 °F  
Max Temperature 68 °F 70 °F 94 °F (1969)
Min Temperature 50 °F 46 °F 23 °F (1907)
Degree Days  
Heating Degree Days 6    
Cooling Degree Days 0 1  
Month to date cooling degree days 4  
Year to date cooling degree days 5  
Growing Degree Days 9 (Base 50)    
Moisture  
Dew Point 57 °F    
Average Humidity 97    
Maximum Humidity 100    
Minimum Humidity 83    
Precipitation  
Precipitation 0.00 in 0.09 in 0.77 in (1972)
Month to date precipitation 2.02  
Year to date precipitation 4.91  
Sea Level Pressure  
Sea Level Pressure 29.96 in    
Wind  
Wind Speed 10 mph (ESE)    
Max Wind Speed 18 mph    
Max Gust Speed 25 mph    
Visibility 8 miles    
Events Fog    
T = Trace of Precipitation, MM = Missing Value Source: NWS Daily Summary

Daily Weather History Graph

Daily Weather History Graph

Search for Another Location

Airport:

Trip Planner

Search our weather history database for the weather conditions in past years. The results will help you decide how hot, cold, wet, or windy it might be!

Date:

Astronomy

May. 26, 2013 Rise Set
Actual Time 5:57 AM CDT 9:36 PM CDT
Civil Twilight 5:18 AM CDT 10:16 PM CDT
Nautical Twilight 4:25 AM CDT 11:09 PM CDT
Astronomical Twilight 3:11 AM CDT 12:24 AM CDT
Moon 11:23 PM CDT (5/26) 7:30 AM CDT (5/26)
Length of Visible Light 16h 57m
Length of Day
15h 39m
Waning Gibbous, 96% of the Moon is Illuminated
May 26
Waning Gibbous
May 31
Last Quarter
Jun 8
New
Jun 16
First Quarter
Jun 23
Full

Hourly Weather History & Observations

Time (CDT) Temp. Dew Point Humidity Pressure Visibility Wind Dir Wind Speed Gust Speed Precip Events Conditions
12:15 AM 57.2 °F 57.2 °F 100% 29.97 in 10.0 mi SE 11.5 mph - N/A   Clear
12:35 AM 57.2 °F 57.2 °F 100% 29.97 in 10.0 mi SE 10.4 mph - N/A   Clear
12:55 AM 57.2 °F 57.2 °F 100% 29.99 in 10.0 mi Calm Calm - N/A   Clear
1:15 AM 55.4 °F 55.4 °F 100% 29.99 in 10.0 mi ENE 6.9 mph - N/A   Clear
1:35 AM 55.4 °F 55.4 °F 100% 30.00 in 10.0 mi NNE 3.5 mph - N/A   Clear
1:55 AM 51.8 °F 51.8 °F 100% 30.00 in 10.0 mi North 5.8 mph - N/A   Clear
2:15 AM 53.6 °F 53.6 °F 100% 30.01 in 10.0 mi North 4.6 mph - N/A   Partly Cloudy
2:35 AM 53.6 °F 53.6 °F 100% 29.99 in 10.0 mi NE 4.6 mph - N/A   Clear
2:55 AM 53.6 °F 53.6 °F 100% 29.98 in 10.0 mi ENE 6.9 mph - N/A   Clear
3:15 AM 53.6 °F 53.6 °F 100% 29.97 in 10.0 mi NE 6.9 mph - N/A   Mostly Cloudy
3:35 AM 53.6 °F 53.6 °F 100% 29.98 in 10.0 mi East 9.2 mph - N/A   Overcast
3:55 AM 53.6 °F 53.6 °F 100% 29.98 in 10.0 mi East 8.1 mph - N/A   Overcast
4:15 AM 53.6 °F 53.6 °F 100% 29.98 in 5.0 mi East 11.5 mph 18.4 mph N/A   Overcast
4:35 AM 53.6 °F 53.6 °F 100% 29.96 in 3.0 mi ESE 12.7 mph - N/A   Overcast
4:55 AM 53.6 °F 53.6 °F 100% 29.95 in 6.0 mi ESE 12.7 mph 19.6 mph N/A   Overcast
5:15 AM 53.6 °F 53.6 °F 100% 29.96 in 7.0 mi ESE 12.7 mph 19.6 mph N/A   Overcast
5:35 AM 53.6 °F 53.6 °F 100% 29.96 in 3.0 mi ESE 13.8 mph - N/A   Overcast
5:55 AM 53.6 °F 53.6 °F 100% 29.96 in 1.0 mi East 15.0 mph 20.7 mph N/A   Overcast
6:15 AM 51.8 °F 51.8 °F 100% 29.96 in 0.8 mi ESE 17.3 mph - N/A   Overcast
6:35 AM 51.8 °F 51.8 °F 100% 29.96 in 0.2 mi ESE 12.7 mph 21.9 mph N/A Fog Fog
6:55 AM 51.8 °F 51.8 °F 100% 29.97 in 0.2 mi ESE 15.0 mph 19.6 mph N/A Fog Fog
7:15 AM 51.8 °F 51.8 °F 100% 29.96 in 0.2 mi ESE 18.4 mph 25.3 mph N/A Fog Fog
7:35 AM 50.0 °F 50.0 °F 100% 29.96 in 0.2 mi ESE 15.0 mph 25.3 mph N/A Fog Fog
7:55 AM 50.0 °F 50.0 °F 100% 29.96 in 0.2 mi ESE 15.0 mph 20.7 mph N/A Fog Fog
8:15 AM 50.0 °F 50.0 °F 100% 29.96 in 0.5 mi ESE 13.8 mph 17.3 mph N/A Fog Fog
8:35 AM 50.0 °F 50.0 °F 100% 29.96 in 0.5 mi ESE 12.7 mph - N/A Fog Fog
8:55 AM 51.8 °F 51.8 °F 100% 29.97 in 0.5 mi SE 12.7 mph 16.1 mph N/A Fog Fog
9:15 AM 51.8 °F 51.8 °F 100% 29.98 in 0.8 mi SE 10.4 mph - N/A   Overcast
9:35 AM 51.8 °F 51.8 °F 100% 30.00 in 1.2 mi SSE 8.1 mph - N/A   Overcast
9:55 AM 53.6 °F 53.6 °F 100% 30.01 in 3.0 mi South 10.4 mph - N/A   Overcast
10:15 AM 53.6 °F 53.6 °F 100% 30.02 in 5.0 mi South 10.4 mph - N/A   Overcast
10:35 AM 53.6 °F 53.6 °F 100% 30.01 in 4.0 mi South 10.4 mph - N/A   Overcast
10:55 AM 53.6 °F 53.6 °F 100% 30.01 in 10.0 mi South 9.2 mph - N/A   Overcast
11:15 AM 53.6 °F 53.6 °F 100% 30.01 in 3.0 mi SSW 8.1 mph - N/A   Overcast
11:35 AM 53.6 °F 53.6 °F 100% 29.99 in 3.0 mi North - - N/A   Overcast
12:15 PM 55.4 °F 55.4 °F 100% 29.99 in 10.0 mi SSE 5.8 mph - N/A   Overcast
12:35 PM 57.2 °F 57.2 °F 100% 29.99 in 10.0 mi ESE 5.8 mph - N/A   Mostly Cloudy
12:55 PM 59.0 °F 59.0 °F 100% 29.98 in 10.0 mi SE 9.2 mph - N/A   Mostly Cloudy
1:15 PM 59.0 °F 59.0 °F 100% 29.98 in 10.0 mi SE 4.6 mph - N/A   Mostly Cloudy
1:35 PM 62.6 °F 62.6 °F 100% 29.97 in 10.0 mi ESE 8.1 mph - N/A   Mostly Cloudy
1:55 PM 64.4 °F 62.6 °F 94% 29.96 in 10.0 mi ESE 9.2 mph - N/A   Mostly Cloudy
2:15 PM 64.4 °F 62.6 °F 94% 29.96 in 10.0 mi SSE 9.2 mph 17.3 mph N/A   Scattered Clouds
2:35 PM 66.2 °F 62.6 °F 88% 29.96 in 10.0 mi SE 9.2 mph - N/A   Scattered Clouds
2:55 PM 66.2 °F 62.6 °F 88% 29.95 in 10.0 mi ESE 13.8 mph 18.4 mph N/A   Partly Cloudy
3:15 PM 66.2 °F 62.6 °F 88% 29.96 in 10.0 mi ESE 15.0 mph - N/A   Partly Cloudy
3:35 PM 66.2 °F 62.6 °F 88% 29.96 in 10.0 mi East 13.8 mph - N/A   Clear
3:55 PM 66.2 °F 62.6 °F 88% 29.96 in 10.0 mi East 13.8 mph - N/A   Clear
4:15 PM 66.2 °F 62.6 °F 88% 29.95 in 10.0 mi ESE 13.8 mph 17.3 mph N/A   Clear
4:35 PM 68.0 °F 62.6 °F 83% 29.95 in 10.0 mi SE 13.8 mph 19.6 mph N/A   Clear
4:55 PM 68.0 °F 62.6 °F 83% 29.95 in 10.0 mi East 12.7 mph 17.3 mph N/A   Clear
5:15 PM 68.0 °F 62.6 °F 83% 29.94 in 10.0 mi East 16.1 mph 19.6 mph N/A   Clear
5:35 PM 68.0 °F 62.6 °F 83% 29.94 in 10.0 mi East 13.8 mph 18.4 mph N/A   Clear
5:55 PM 66.2 °F 62.6 °F 88% 29.94 in 10.0 mi East 15.0 mph - N/A   Clear
6:15 PM 66.2 °F 62.6 °F 88% 29.94 in 10.0 mi East 16.1 mph - N/A   Clear
6:35 PM 66.2 °F 62.6 °F 88% 29.94 in 10.0 mi East 16.1 mph 23.0 mph N/A   Clear
6:55 PM 64.4 °F 62.6 °F 94% 29.93 in 10.0 mi East 17.3 mph 21.9 mph N/A   Clear
7:15 PM 64.4 °F 62.6 °F 94% 29.93 in 10.0 mi East 15.0 mph 20.7 mph N/A   Clear
7:35 PM 64.4 °F 62.6 °F 94% 29.93 in 10.0 mi East 13.8 mph - N/A   Clear
7:55 PM 62.6 °F 62.6 °F 100% 29.94 in 10.0 mi East 12.7 mph 18.4 mph N/A   Clear
8:15 PM 62.6 °F 62.6 °F 100% 29.93 in 10.0 mi East 12.7 mph 20.7 mph N/A   Clear
8:35 PM 59.0 °F 59.0 °F 100% 29.94 in 10.0 mi East 15.0 mph 19.6 mph N/A   Clear
8:55 PM 59.0 °F 59.0 °F 100% 29.93 in 10.0 mi East 10.4 mph 18.4 mph N/A   Partly Cloudy
9:15 PM 57.2 °F 57.2 °F 100% 29.94 in 10.0 mi East 10.4 mph 17.3 mph N/A   Partly Cloudy
9:35 PM 57.2 °F 57.2 °F 100% 29.95 in 10.0 mi East 8.1 mph - N/A   Clear
9:55 PM 55.4 °F 55.4 °F 100% 29.95 in 10.0 mi East 9.2 mph - N/A   Clear
10:15 PM 55.4 °F 55.4 °F 100% 29.95 in 10.0 mi ENE 8.1 mph - N/A   Clear
10:35 PM 55.4 °F 55.4 °F 100% 29.94 in 10.0 mi ENE 8.1 mph - N/A   Clear
10:55 PM 53.6 °F 53.6 °F 100% 29.93 in 10.0 mi East 8.1 mph - N/A   Clear
11:15 PM 53.6 °F 53.6 °F 100% 29.93 in 10.0 mi East 9.2 mph - N/A   Clear
11:35 PM 53.6 °F 53.6 °F 100% 29.92 in 10.0 mi East 11.5 mph - N/A   Scattered Clouds
11:55 PM 55.4 °F 55.4 °F 100% 29.91 in 10.0 mi East 9.2 mph - N/A   Overcast